Terminal Aerodrome Forecast
Issued by NWS

Home | Current Version | Previous Version | Text Only | Print | Product List | Glossary On
Versions: 1 2 3 4 5 6 7 8 9 10 11 12 13 14 15 16 17 18
000
FTUS46 KLOX 201700 RRA
TAFWJF
TAF
KWJF 201745Z 2018/2118 00000KT P6SM SKC
     FM202000 25012KT P6SM SCT150
     FM202200 25015G22KT P6SM BKN150
     FM210500 26008KT P6SM SCT150=

USA.gov is the U.S. government's official web portal to all federal, state and local government web resources and services.